CNX weather

Chiang Mai International Airport
Chiang Mai, Chiang Mai Province, Thailand

Public forecast

Using degrees Celsius for public forecast. Weather courtesy of forecast.io.

Current aviation weather report (METAR) for Chiang Mai International Airport

Retrieved 2019/10/20 02:30 UTC (0 seconds ago):

VTCC 200230Z 00000KT 9999 FEW035 29/24 Q1019 NOSIG

Aviation forecast (TAF) for Chiang Mai International Airport

Retrieved 2019-10-20 00:39 UTC (2 hours ago):

TAF VTCC 192300Z 2000/2106 16005KT 9999 FEW035